createdAt,value
2018-12-17T13:10:39.013Z,1016.33
2018-12-17T13:11:38.969Z,1016.33
2018-12-17T13:12:38.929Z,1016.38
2018-12-17T13:13:38.877Z,1016.45
2018-12-17T13:14:38.844Z,1016.39
2018-12-17T13:15:56.738Z,1016.37
2018-12-17T13:16:56.682Z,1016.41
2018-12-17T13:17:56.628Z,1016.39
2018-12-17T13:18:56.569Z,1016.43
2018-12-17T13:19:56.514Z,1016.47
2018-12-17T13:20:56.436Z,1016.45
2018-12-17T13:21:56.380Z,1016.46
2018-12-17T13:22:56.306Z,1016.45
2018-12-17T13:23:56.242Z,1016.50
2018-12-17T13:24:56.193Z,1016.50
2018-12-17T13:25:56.129Z,1016.55
2018-12-17T13:26:56.051Z,1016.57
2018-12-17T13:27:55.990Z,1016.62
2018-12-17T13:28:55.926Z,1016.65
2018-12-17T13:29:55.874Z,1016.62
2018-12-17T13:30:55.800Z,1016.60
2018-12-17T13:31:55.813Z,1016.75
2018-12-17T13:32:55.676Z,1016.64
2018-12-17T13:33:55.610Z,1016.61
2018-12-17T13:54:12.875Z,1016.70
2018-12-17T13:55:12.813Z,1016.75
2018-12-17T13:56:12.731Z,1016.70
2018-12-17T13:57:12.663Z,1016.72
2018-12-17T13:58:12.588Z,1016.72
2018-12-17T13:59:12.511Z,1016.79
2018-12-17T14:00:12.444Z,1016.81
2018-12-17T14:01:12.352Z,1016.81
2018-12-17T14:02:12.265Z,1016.84
2018-12-17T14:03:12.179Z,1016.82
2018-12-17T14:04:12.092Z,1016.75
2018-12-17T14:05:17.320Z,1016.80
2018-12-17T14:06:17.284Z,1016.82
2018-12-17T14:07:17.273Z,1016.81
2018-12-17T14:08:17.279Z,1016.87
2018-12-17T14:09:17.251Z,1016.87
2018-12-17T14:10:17.252Z,1016.91
2018-12-17T14:11:17.243Z,1016.96
2018-12-17T14:12:44.454Z,1016.99
2018-12-17T14:13:44.449Z,1017.00
2018-12-17T14:14:44.431Z,1017.03
2018-12-17T14:15:44.455Z,1017.04
2018-12-17T14:16:44.409Z,1016.95
2018-12-17T14:17:44.398Z,1016.93
2018-12-17T14:18:44.387Z,1016.95
2018-12-17T14:19:44.378Z,1016.92
2018-12-17T14:20:44.401Z,1016.86
2018-12-17T14:21:44.395Z,1016.91
2018-12-17T14:22:53.687Z,1016.97
2018-12-17T14:23:44.343Z,1017.01
2018-12-17T14:24:44.323Z,1016.93
2018-12-17T14:25:44.317Z,1016.98
2018-12-17T14:26:44.309Z,1017.01
2018-12-17T14:27:44.297Z,1017.00
2018-12-17T14:28:44.333Z,1017.01
2018-12-17T14:29:46.165Z,1016.99
2018-12-17T14:30:44.258Z,1016.99
2018-12-17T14:31:44.275Z,1017.06
2018-12-17T14:32:44.283Z,1017.05
2018-12-17T14:33:44.221Z,1017.08
2018-12-17T14:34:44.213Z,1017.04
2018-12-17T14:35:44.203Z,1017.09
2018-12-17T14:36:44.202Z,1017.10
2018-12-17T14:37:44.181Z,1017.11
2018-12-17T14:38:44.169Z,1017.08
2018-12-17T14:39:44.157Z,1017.19
2018-12-17T14:40:44.147Z,1017.19
2018-12-17T14:41:44.162Z,1017.17
2018-12-17T14:42:44.126Z,1017.18
2018-12-17T14:43:44.113Z,1017.15
2018-12-17T14:44:44.103Z,1017.13
2018-12-17T14:45:44.093Z,1017.19
2018-12-17T14:46:44.097Z,1017.15
2018-12-17T14:47:44.070Z,1017.17
2018-12-17T14:48:44.063Z,1017.23
2018-12-17T14:49:44.047Z,1017.18
2018-12-17T14:50:44.036Z,1017.17
2018-12-17T14:51:44.048Z,1017.19
2018-12-17T14:52:44.029Z,1017.13
2018-12-17T14:53:44.005Z,1017.14
2018-12-17T14:54:44.002Z,1017.19
2018-12-17T14:55:43.984Z,1017.16
2018-12-17T14:56:43.983Z,1017.14
2018-12-17T14:57:43.960Z,1017.21
2018-12-17T14:58:44.552Z,1017.22
2018-12-17T14:59:43.942Z,1017.21
2018-12-17T15:00:43.929Z,1017.27
2018-12-17T15:01:43.929Z,1017.27
2018-12-17T15:02:43.906Z,1017.29
2018-12-17T15:03:43.895Z,1017.36
2018-12-17T15:04:43.883Z,1017.34
2018-12-17T15:05:43.880Z,1017.36
2018-12-17T15:06:43.874Z,1017.34
2018-12-17T15:07:43.851Z,1017.31
2018-12-17T15:08:43.842Z,1017.27
2018-12-17T15:09:43.832Z,1017.26
2018-12-17T15:10:43.820Z,1017.23
2018-12-17T15:11:43.818Z,1017.25
2018-12-17T15:12:43.797Z,1017.26
2018-12-17T15:13:43.793Z,1017.22
2018-12-17T15:14:43.776Z,1017.29
2018-12-17T15:15:43.769Z,1017.20
2018-12-17T15:16:43.773Z,1017.20
2018-12-17T15:17:43.746Z,1017.22
2018-12-17T15:18:43.731Z,1017.30
2018-12-17T15:19:43.720Z,1017.29
2018-12-17T15:20:43.712Z,1017.28
2018-12-17T15:21:43.824Z,1017.26
2018-12-17T15:22:43.741Z,1017.25
2018-12-17T15:23:43.689Z,1017.28
2018-12-17T15:24:43.675Z,1017.32
2018-12-17T15:25:43.682Z,1017.35
2018-12-17T15:26:43.846Z,1017.31
2018-12-17T15:27:43.647Z,1017.31
2018-12-17T15:28:43.626Z,1017.36
2018-12-17T15:29:43.615Z,1017.38
2018-12-17T15:30:43.607Z,1017.45
2018-12-17T15:31:43.599Z,1017.46
2018-12-17T15:32:43.592Z,1017.47
2018-12-17T15:33:43.591Z,1017.55
2018-12-17T15:34:43.558Z,1017.46
2018-12-17T15:35:43.547Z,1017.44
2018-12-17T15:36:43.534Z,1017.51
2018-12-17T15:37:43.533Z,1017.44
2018-12-17T15:38:43.510Z,1017.55
2018-12-17T15:39:43.500Z,1017.52
2018-12-17T15:40:43.492Z,1017.50
2018-12-17T15:41:43.481Z,1017.52
2018-12-17T15:42:43.478Z,1017.43
2018-12-17T15:43:43.457Z,1017.49
2018-12-17T15:44:43.448Z,1017.48
2018-12-17T15:45:43.436Z,1017.59
2018-12-17T15:46:43.423Z,1017.63
2018-12-17T15:47:43.427Z,1017.65
2018-12-17T15:48:43.406Z,1017.66
2018-12-17T15:49:43.389Z,1017.64
2018-12-17T15:50:43.406Z,1017.70
2018-12-17T15:51:43.376Z,1017.67
2018-12-17T15:52:43.757Z,1017.74
2018-12-17T15:53:43.350Z,1017.73
2018-12-17T15:54:43.335Z,1017.74
2018-12-17T15:55:43.339Z,1017.71
2018-12-17T15:56:43.352Z,1017.77
2018-12-17T15:57:43.335Z,1017.77
2018-12-17T15:58:43.291Z,1017.75
2018-12-17T15:59:43.283Z,1017.70
2018-12-17T16:00:43.270Z,1017.82
2018-12-17T16:01:49.892Z,1017.74
2018-12-17T16:02:44.282Z,1017.82
2018-12-17T16:03:43.235Z,1017.83
2018-12-17T16:04:43.228Z,1017.85
2018-12-17T16:05:43.230Z,1017.88
2018-12-17T16:06:43.202Z,1017.92
2018-12-17T16:07:43.192Z,1017.86
2018-12-17T16:08:43.194Z,1017.85
2018-12-17T16:09:43.170Z,1017.83
2018-12-17T16:10:43.165Z,1017.81
2018-12-17T16:11:43.147Z,1017.79
2018-12-17T16:12:43.141Z,1017.83
2018-12-17T16:13:43.141Z,1017.87
2018-12-17T16:14:43.211Z,1017.88
2018-12-17T16:15:43.110Z,1017.86
2018-12-17T16:16:43.096Z,1017.99
2018-12-17T16:17:43.084Z,1017.92
2018-12-17T16:18:43.086Z,1017.92
2018-12-17T16:19:43.061Z,1017.91
2018-12-17T16:20:44.754Z,1017.88
2018-12-17T16:21:43.043Z,1017.89
2018-12-17T16:22:43.035Z,1017.91
2018-12-17T16:23:43.028Z,1017.91
2018-12-17T16:24:43.008Z,1017.91
2018-12-17T16:25:42.998Z,1017.96
2018-12-17T16:26:42.992Z,1017.93
2018-12-17T16:27:43.690Z,1017.90
2018-12-17T16:28:42.977Z,1018.03
2018-12-17T16:29:44.693Z,1018.00
2018-12-17T16:30:42.941Z,1018.01
2018-12-17T16:31:42.932Z,1017.93
2018-12-17T16:32:42.919Z,1017.91
2018-12-17T16:33:42.920Z,1017.94
2018-12-17T16:34:42.898Z,1018.02
2018-12-17T16:35:42.885Z,1017.98
2018-12-17T16:36:52.246Z,1017.93
2018-12-17T16:37:52.273Z,1017.96
2018-12-17T16:38:42.866Z,1018.03
2018-12-17T16:39:50.830Z,1017.92
2018-12-17T16:40:42.830Z,1017.98
2018-12-17T16:41:42.818Z,1017.97
2018-12-17T16:42:42.808Z,1017.88
2018-12-17T16:43:42.810Z,1017.94
2018-12-17T16:44:42.802Z,1017.94
2018-12-17T16:45:42.777Z,1017.89
2018-12-17T16:46:42.763Z,1017.92
2018-12-17T16:47:42.773Z,1017.91
2018-12-17T16:48:42.752Z,1017.94
2018-12-17T16:49:42.731Z,1018.02
2018-12-17T16:50:42.719Z,1017.95
2018-12-17T16:51:42.712Z,1018.00
2018-12-17T16:52:42.697Z,1018.00
2018-12-17T16:53:42.751Z,1018.07
2018-12-17T16:54:42.677Z,1018.06
2018-12-17T16:55:42.666Z,1018.03
2018-12-17T16:56:42.659Z,1018.04
2018-12-17T16:57:42.653Z,1018.13
2018-12-17T16:58:42.634Z,1018.15
2018-12-17T16:59:42.632Z,1018.18
2018-12-17T17:00:42.623Z,1018.15
2018-12-17T17:01:42.607Z,1018.11
2018-12-17T17:02:42.609Z,1018.23
2018-12-17T17:03:42.577Z,1018.16
2018-12-17T17:04:42.584Z,1018.21
2018-12-17T17:05:42.564Z,1018.17
2018-12-17T17:06:42.545Z,1018.23
2018-12-17T17:07:42.538Z,1018.22
2018-12-17T17:08:42.531Z,1018.25
2018-12-17T17:09:42.580Z,1018.27
2018-12-17T17:10:42.505Z,1018.18
2018-12-17T17:11:42.489Z,1018.25
2018-12-17T17:12:42.482Z,1018.21
2018-12-17T17:13:42.473Z,1018.23
2018-12-17T17:14:42.528Z,1018.25
2018-12-17T17:15:42.446Z,1018.25
2018-12-17T17:16:42.457Z,1018.24
2018-12-17T17:17:42.425Z,1018.22
2018-12-17T17:18:42.418Z,1018.20
2018-12-17T17:19:42.433Z,1018.19
2018-12-17T17:20:42.391Z,1018.22
2018-12-17T17:21:42.380Z,1018.21
2018-12-17T17:22:42.367Z,1018.23
2018-12-17T17:23:42.356Z,1018.22
2018-12-17T17:24:42.346Z,1018.23
2018-12-17T17:25:42.356Z,1018.27
2018-12-17T17:26:42.325Z,1018.22
2018-12-17T17:27:42.314Z,1018.25
2018-12-17T17:28:42.302Z,1018.26
2018-12-17T17:29:42.294Z,1018.26
2018-12-17T17:30:42.299Z,1018.31
2018-12-17T17:31:42.274Z,1018.32
2018-12-17T17:32:42.267Z,1018.30
2018-12-17T17:33:42.248Z,1018.40
2018-12-17T17:34:42.242Z,1018.36
2018-12-17T17:35:42.244Z,1018.37
2018-12-17T17:36:42.213Z,1018.36
2018-12-17T17:37:42.207Z,1018.41
2018-12-17T17:38:42.262Z,1018.46
2018-12-17T17:39:42.182Z,1018.42
2018-12-17T17:40:42.189Z,1018.44
2018-12-17T17:41:42.163Z,1018.48
2018-12-17T17:42:42.206Z,1018.47
2018-12-17T17:43:42.136Z,1018.49
2018-12-17T17:44:42.127Z,1018.50
2018-12-17T17:45:42.133Z,1018.47
2018-12-17T17:46:42.106Z,1018.51
2018-12-17T17:47:42.094Z,1018.58
2018-12-17T17:48:42.093Z,1018.56
2018-12-17T17:49:42.070Z,1018.60
2018-12-17T17:50:42.073Z,1018.52
2018-12-17T17:51:42.049Z,1018.54
2018-12-17T17:52:42.038Z,1018.57
2018-12-17T17:53:42.029Z,1018.57
2018-12-17T17:54:42.027Z,1018.61
2018-12-17T17:55:42.017Z,1018.57
2018-12-17T17:56:41.996Z,1018.56
2018-12-17T17:57:41.982Z,1018.59
2018-12-17T17:58:41.988Z,1018.59
2018-12-17T17:59:41.959Z,1018.67
2018-12-17T18:00:41.981Z,1018.64
2018-12-17T18:01:43.177Z,1018.69
2018-12-17T18:02:41.927Z,1018.67
2018-12-17T18:03:41.917Z,1018.72
2018-12-17T18:04:41.908Z,1018.67
2018-12-17T18:05:41.898Z,1018.74
2018-12-17T18:06:41.895Z,1018.70
2018-12-17T18:07:41.875Z,1018.79
2018-12-17T18:08:41.861Z,1018.68
2018-12-17T18:09:41.858Z,1018.74
2018-12-17T18:10:41.849Z,1018.69
2018-12-17T18:11:41.859Z,1018.76
2018-12-17T18:12:41.820Z,1018.72
2018-12-17T18:13:41.838Z,1018.76
2018-12-17T18:14:41.797Z,1018.82
2018-12-17T18:15:41.990Z,1018.79
2018-12-17T18:16:41.793Z,1018.88
2018-12-17T18:17:41.762Z,1018.89
2018-12-17T18:18:41.751Z,1018.90
2018-12-17T18:19:41.742Z,1018.83
2018-12-17T18:20:41.731Z,1018.87
2018-12-17T18:21:41.729Z,1018.86
2018-12-17T18:22:41.723Z,1018.88
2018-12-17T18:23:41.696Z,1018.88
2018-12-17T18:24:41.728Z,1018.83
2018-12-17T18:25:41.680Z,1018.87
2018-12-17T18:26:41.775Z,1018.91
2018-12-17T18:27:41.655Z,1018.87
2018-12-17T18:28:41.664Z,1018.92
2018-12-17T18:29:41.645Z,1018.87
2018-12-17T18:30:41.621Z,1018.90
2018-12-17T18:31:41.628Z,1018.85
2018-12-17T18:32:41.600Z,1018.85
2018-12-17T18:33:50.867Z,1018.84
2018-12-17T18:34:41.578Z,1018.87
2018-12-17T18:35:41.565Z,1018.84
2018-12-17T18:36:41.565Z,1018.88
2018-12-17T18:37:41.547Z,1018.85
2018-12-17T18:38:41.531Z,1018.84
2018-12-17T18:39:41.525Z,1018.90
2018-12-17T18:40:41.509Z,1018.88
2018-12-17T18:41:41.511Z,1018.93
2018-12-17T18:42:41.492Z,1018.89
2018-12-17T18:43:41.519Z,1018.90
2018-12-17T18:44:41.472Z,1018.86
2018-12-17T18:45:42.333Z,1018.91
2018-12-17T18:46:41.512Z,1018.90
2018-12-17T18:47:41.438Z,1018.87
2018-12-17T18:48:41.423Z,1018.84
2018-12-17T18:49:41.412Z,1018.92
2018-12-17T18:50:41.410Z,1018.99
2018-12-17T18:51:41.394Z,1019.01
2018-12-17T18:52:41.387Z,1019.05
2018-12-17T18:53:41.367Z,1019.04
2018-12-17T18:54:41.357Z,1019.04
2018-12-17T18:55:41.344Z,1018.99
2018-12-17T18:56:41.332Z,1019.04
2018-12-17T18:57:41.351Z,1019.04
2018-12-17T18:58:41.314Z,1019.12
2018-12-17T18:59:41.304Z,1019.13
2018-12-17T19:00:41.299Z,1019.07
2018-12-17T19:01:41.281Z,1019.09
2018-12-17T19:02:41.292Z,1019.07
2018-12-17T19:03:41.288Z,1019.05
2018-12-17T19:04:41.247Z,1019.04
2018-12-17T19:05:41.239Z,1019.02
2018-12-17T19:06:41.234Z,1019.04
2018-12-17T19:07:41.229Z,1019.05
2018-12-17T19:08:41.220Z,1019.08
2018-12-17T19:09:51.402Z,1019.13
2018-12-17T19:10:41.184Z,1019.06
2018-12-17T19:11:41.170Z,1019.04
2018-12-17T19:12:41.228Z,1019.06
2018-12-17T19:13:41.241Z,1019.06
2018-12-17T19:14:41.138Z,1019.09
2018-12-17T19:15:41.128Z,1019.04
2018-12-17T19:16:41.114Z,1019.01
2018-12-17T19:17:41.120Z,1019.09
2018-12-17T19:18:41.093Z,1019.07
2018-12-17T19:20:34.170Z,1019.09
2018-12-17T19:21:34.153Z,1019.18
2018-12-17T19:22:34.158Z,1019.26
2018-12-17T19:23:34.138Z,1019.26
2018-12-17T19:24:34.148Z,1019.21
2018-12-17T19:25:34.116Z,1019.27
2018-12-17T19:26:34.101Z,1019.31
2018-12-17T19:27:34.103Z,1019.30
2018-12-17T19:28:34.109Z,1019.39
2018-12-17T19:29:34.078Z,1019.38
2018-12-17T19:30:34.061Z,1019.40
2018-12-17T19:31:34.708Z,1019.37
2018-12-17T19:32:43.921Z,1019.38
2018-12-17T19:33:43.437Z,1019.41
2018-12-17T19:34:43.467Z,1019.41
2018-12-17T19:35:43.506Z,1019.40
2018-12-17T19:36:33.998Z,1019.39
2018-12-17T19:37:33.985Z,1019.38
2018-12-17T19:38:33.989Z,1019.37
2018-12-17T19:39:33.967Z,1019.34
2018-12-17T19:40:33.957Z,1019.35
2018-12-17T19:41:33.948Z,1019.29
2018-12-17T19:42:33.932Z,1019.30
2018-12-17T19:43:33.938Z,1019.29
2018-12-17T19:44:33.910Z,1019.32
2018-12-17T19:45:33.901Z,1019.35
2018-12-17T19:46:33.895Z,1019.26
2018-12-17T19:47:33.878Z,1019.34
2018-12-17T19:48:33.878Z,1019.36
2018-12-17T19:49:33.859Z,1019.38
2018-12-17T19:50:33.851Z,1019.40
2018-12-17T19:51:33.840Z,1019.39
2018-12-17T19:52:33.831Z,1019.39
2018-12-17T19:53:33.827Z,1019.41
2018-12-17T19:54:33.803Z,1019.36
2018-12-17T19:55:33.792Z,1019.39
2018-12-17T19:56:33.786Z,1019.37
2018-12-17T19:57:33.771Z,1019.40
2018-12-17T19:58:33.776Z,1019.38
2018-12-17T19:59:33.756Z,1019.33
2018-12-17T20:00:43.040Z,1019.40
2018-12-17T20:01:45.073Z,1019.38
2018-12-17T20:03:50.289Z,1019.40
2018-12-17T20:04:59.522Z,1019.40
2018-12-17T20:05:50.258Z,1019.44
2018-12-17T20:06:59.545Z,1019.43
2018-12-17T20:08:00.575Z,1019.45
2018-12-17T20:08:50.235Z,1019.47
2018-12-17T20:09:50.231Z,1019.49
2018-12-17T20:10:50.203Z,1019.46
2018-12-17T20:11:50.208Z,1019.51
2018-12-17T20:12:50.181Z,1019.51
2018-12-17T20:13:50.185Z,1019.46
2018-12-17T20:14:50.162Z,1019.49
2018-12-17T20:15:50.156Z,1019.55
2018-12-17T20:16:50.143Z,1019.51
2018-12-17T20:17:50.126Z,1019.51
2018-12-17T20:18:50.127Z,1019.48
2018-12-17T20:19:50.108Z,1019.56
2018-12-17T20:20:50.101Z,1019.48
2018-12-17T20:21:50.087Z,1019.58
2018-12-17T20:22:50.073Z,1019.54
2018-12-17T20:23:50.077Z,1019.58
2018-12-17T20:24:50.053Z,1019.55
2018-12-17T20:25:50.584Z,1019.58
2018-12-17T20:26:50.032Z,1019.60
2018-12-17T20:27:50.063Z,1019.57
2018-12-17T20:28:50.023Z,1019.58
2018-12-17T20:29:50.549Z,1019.55
2018-12-17T20:30:49.993Z,1019.61
2018-12-17T20:31:50.001Z,1019.62
2018-12-17T20:32:53.524Z,1019.59
2018-12-17T20:33:49.982Z,1019.62
2018-12-17T20:34:49.949Z,1019.52
2018-12-17T20:35:49.939Z,1019.55
2018-12-17T20:36:49.946Z,1019.51
2018-12-17T20:37:49.916Z,1019.46
2018-12-17T20:38:49.920Z,1019.52
2018-12-17T20:39:49.895Z,1019.53
2018-12-17T20:40:49.882Z,1019.50
2018-12-17T20:41:49.875Z,1019.52
2018-12-17T20:42:49.865Z,1019.46
2018-12-17T20:43:49.883Z,1019.54
2018-12-17T20:44:49.840Z,1019.50
2018-12-17T20:45:49.834Z,1019.60
2018-12-17T20:46:49.818Z,1019.58
2018-12-17T20:47:49.811Z,1019.56
2018-12-17T20:48:49.817Z,1019.55
2018-12-17T20:49:49.824Z,1019.55
2018-12-17T20:50:49.781Z,1019.57
2018-12-17T20:51:49.826Z,1019.55
2018-12-17T20:52:49.758Z,1019.49
2018-12-17T20:53:49.749Z,1019.60
2018-12-17T20:54:49.757Z,1019.52
2018-12-17T20:55:49.729Z,1019.56
2018-12-17T20:56:49.729Z,1019.54
2018-12-17T20:57:49.701Z,1019.58
2018-12-17T20:58:49.692Z,1019.54
2018-12-17T20:59:49.692Z,1019.58
2018-12-17T21:00:49.674Z,1019.64
2018-12-17T21:01:49.687Z,1019.62
2018-12-17T21:02:49.652Z,1019.60
2018-12-17T21:03:49.638Z,1019.65
2018-12-17T21:04:49.641Z,1019.59
2018-12-17T21:05:49.634Z,1019.64
2018-12-17T21:06:49.990Z,1019.62
2018-12-17T21:07:49.630Z,1019.72
2018-12-17T21:08:49.584Z,1019.72
2018-12-17T21:09:49.799Z,1019.65
2018-12-17T21:10:49.589Z,1019.65
2018-12-17T21:11:49.559Z,1019.63
2018-12-17T21:12:49.541Z,1019.63
2018-12-17T21:13:49.533Z,1019.60
2018-12-17T21:14:49.526Z,1019.60
2018-12-17T21:15:49.527Z,1019.56
2018-12-17T21:16:49.564Z,1019.58
2018-12-17T21:17:49.492Z,1019.54
2018-12-17T21:18:49.481Z,1019.57
2018-12-17T21:19:49.468Z,1019.57
2018-12-17T21:20:49.545Z,1019.59
2018-12-17T21:21:49.448Z,1019.55
2018-12-17T21:22:49.495Z,1019.58
2018-12-17T21:23:49.426Z,1019.54
2018-12-17T21:24:49.431Z,1019.56
2018-12-17T21:25:49.425Z,1019.54
2018-12-17T21:26:49.392Z,1019.55
2018-12-17T21:29:05.704Z,1019.56
2018-12-17T21:30:14.862Z,1019.61
2018-12-17T21:31:14.417Z,1019.62
2018-12-17T21:32:13.925Z,1019.63
2018-12-17T21:33:06.925Z,1019.58
2018-12-17T21:34:14.938Z,1019.66
2018-12-17T21:35:05.628Z,1019.67
2018-12-17T21:36:16.531Z,1019.65
2018-12-17T21:38:21.839Z,1019.64
2018-12-17T21:40:38.492Z,1019.71
2018-12-17T21:41:48.687Z,1019.64
2018-12-17T21:42:38.407Z,1019.66
2018-12-17T21:43:49.671Z,1019.66
2018-12-17T21:44:47.717Z,1019.68
2018-12-17T21:45:38.372Z,1019.63
2018-12-17T21:46:38.385Z,1019.69
2018-12-17T21:47:47.721Z,1019.82
2018-12-17T21:48:38.343Z,1019.74
2018-12-17T21:49:47.740Z,1019.75
2018-12-17T21:50:38.319Z,1019.70
2018-12-17T21:51:38.322Z,1019.81
2018-12-17T21:52:47.788Z,1019.78
2018-12-17T21:53:38.291Z,1019.79
2018-12-17T21:54:38.275Z,1019.83
2018-12-17T21:55:47.847Z,1019.83
2018-12-17T21:56:47.354Z,1019.83
2018-12-17T21:57:38.244Z,1019.87
2018-12-17T21:58:38.234Z,1019.83
2018-12-17T21:59:47.401Z,1019.85
2018-12-17T22:00:47.401Z,1019.86
2018-12-17T22:01:47.922Z,1019.92
2018-12-17T22:02:45.991Z,1019.94
2018-12-17T22:03:38.180Z,1019.94
2018-12-17T22:04:38.169Z,1019.93
2018-12-17T22:05:47.516Z,1019.98
2018-12-17T22:06:48.060Z,1019.97
2018-12-17T22:07:38.145Z,1019.94
2018-12-17T22:08:38.156Z,1019.91
2018-12-17T22:09:38.114Z,1019.97
2018-12-17T22:10:38.111Z,1019.95
2018-12-17T22:11:38.136Z,1019.91
2018-12-17T22:12:49.571Z,1019.91
2018-12-17T22:13:38.076Z,1019.91
2018-12-17T22:14:38.061Z,1019.97
2018-12-17T22:15:38.073Z,1019.93
2018-12-17T22:16:38.058Z,1019.95
2018-12-17T22:17:38.036Z,1019.95
2018-12-17T22:18:38.117Z,1019.98
2018-12-17T22:19:38.004Z,1019.92
2018-12-17T22:20:37.999Z,1020.00
2018-12-17T22:22:46.775Z,1019.97
2018-12-17T22:23:46.789Z,1019.98
2018-12-17T22:24:46.736Z,1019.91
2018-12-17T22:25:46.734Z,1019.97
2018-12-17T22:26:46.794Z,1019.94
2018-12-17T22:27:46.710Z,1019.91
2018-12-17T22:28:46.724Z,1019.92
2018-12-17T22:29:46.701Z,1019.91
2018-12-17T22:30:46.671Z,1019.97
2018-12-17T22:31:47.451Z,1019.88
2018-12-17T22:32:46.695Z,1019.91
2018-12-17T22:33:46.648Z,1019.90
2018-12-17T22:34:46.627Z,1019.84
2018-12-17T22:35:46.615Z,1019.98
2018-12-17T22:36:46.688Z,1019.94
2018-12-17T22:37:46.596Z,1019.94
2018-12-17T22:38:46.619Z,1019.93
2018-12-17T22:39:46.607Z,1020.01
2018-12-17T22:40:46.574Z,1019.93
2018-12-17T22:41:47.031Z,1019.99
2018-12-17T22:42:46.547Z,1019.95
2018-12-17T22:43:46.536Z,1019.94
2018-12-17T22:44:46.535Z,1019.96
2018-12-17T22:45:46.514Z,1019.96
2018-12-17T22:46:46.510Z,1019.90
2018-12-17T22:47:46.522Z,1019.97
2018-12-17T22:48:46.489Z,1019.92
2018-12-17T22:49:46.497Z,1019.88
2018-12-17T22:50:46.477Z,1019.91
2018-12-17T22:51:46.461Z,1019.98
2018-12-17T22:52:46.459Z,1019.96
2018-12-17T22:53:46.431Z,1019.92
2018-12-17T22:54:46.435Z,1019.89
2018-12-17T22:55:46.413Z,1019.89
2018-12-17T22:56:46.415Z,1019.86
2018-12-17T22:57:46.424Z,1019.86
2018-12-17T22:58:46.382Z,1019.83
2018-12-17T22:59:46.364Z,1019.80
2018-12-17T23:00:46.353Z,1019.84
2018-12-17T23:01:46.374Z,1019.82
2018-12-17T23:02:46.355Z,1019.82
2018-12-17T23:03:46.321Z,1019.81
2018-12-17T23:04:46.311Z,1019.83
2018-12-17T23:05:46.297Z,1019.84
2018-12-17T23:06:46.302Z,1019.83
2018-12-17T23:07:46.311Z,1019.84
2018-12-17T23:08:46.285Z,1019.84
2018-12-17T23:09:46.278Z,1019.88
2018-12-17T23:10:46.260Z,1019.82
2018-12-17T23:11:46.294Z,1019.74
2018-12-17T23:12:46.235Z,1019.83
2018-12-17T23:13:46.221Z,1019.79
2018-12-17T23:14:46.201Z,1019.80
2018-12-17T23:15:46.195Z,1019.81
2018-12-17T23:16:46.183Z,1019.70
2018-12-17T23:17:46.185Z,1019.80
2018-12-17T23:18:46.159Z,1019.81
2018-12-17T23:19:46.154Z,1019.73
2018-12-17T23:20:46.144Z,1019.67
2018-12-17T23:21:46.126Z,1019.73
2018-12-17T23:22:46.131Z,1019.76
2018-12-17T23:23:46.102Z,1019.73
2018-12-17T23:24:46.097Z,1019.80
2018-12-17T23:25:46.090Z,1019.74
2018-12-17T23:26:46.083Z,1019.74
2018-12-17T23:27:46.082Z,1019.71
2018-12-17T23:28:46.049Z,1019.79
2018-12-17T23:29:46.037Z,1019.77
2018-12-17T23:30:46.033Z,1019.72
2018-12-17T23:31:46.020Z,1019.71
2018-12-17T23:32:46.027Z,1019.73
2018-12-17T23:33:46.001Z,1019.72
2018-12-17T23:34:45.986Z,1019.77
2018-12-17T23:35:45.993Z,1019.74
2018-12-17T23:36:45.972Z,1019.83
2018-12-17T23:37:45.975Z,1019.70
2018-12-17T23:38:45.949Z,1019.67
2018-12-17T23:39:45.955Z,1019.77
2018-12-17T23:40:45.927Z,1019.70
2018-12-17T23:41:45.910Z,1019.71
2018-12-17T23:42:45.909Z,1019.79
2018-12-17T23:43:45.912Z,1019.80
2018-12-17T23:44:45.878Z,1019.74
2018-12-17T23:45:45.867Z,1019.77
2018-12-17T23:46:45.863Z,1019.72
2018-12-17T23:47:45.847Z,1019.76
2018-12-17T23:48:45.873Z,1019.71
2018-12-17T23:49:45.831Z,1019.72
2018-12-17T23:50:45.839Z,1019.70
2018-12-17T23:51:45.803Z,1019.72
2018-12-17T23:52:45.788Z,1019.71
2018-12-17T23:53:45.814Z,1019.77
2018-12-17T23:54:45.781Z,1019.77
2018-12-17T23:55:45.767Z,1019.70
2018-12-17T23:56:45.752Z,1019.74
2018-12-17T23:57:45.738Z,1019.83
2018-12-17T23:58:45.744Z,1019.73
2018-12-17T23:59:45.727Z,1019.71
